La Grande, Canada
Current Conditions -  °F | °C
As of 3:00 AM on Thursday 18 Dec 2014 (Local Time) from CYGL Reporting Station
Clear Clear  
Wind Chill: -8°   Ceiling: Unl
Heat Index: -8°   Visibility: 15mi
Dew Point: -11°   Wind: 2mph
Humidity: 84%   Direction: 10°N
Pressure: 30.14"   Gusts: NA
Location:  53.63°N, 77.7°W
Report Text: CYGL 180800Z 01002KT 15SM SKC M22/M24 A3014 RMK SLP230
Loading
Personal Weather Stations






























Interactive Weather Map New forecast layout! Learn more

10-Day Weather Forecast

Advertisements
Track Severe Weather on mobile